Observations

BIA Manual Entry


Date Temp Humidity Rainfall Dew Point Wind Direction Wind Speed Wind Pressure Condition Visibility
2025-02-25 23:01:26 26 96 0.00 25 300 1.9 1014 Lightning 10KM
2025-02-25 22:00:59 26 96 0.00 25 050 1.9 1014 Lightning 10KM
2025-02-25 21:03:00 26 95 25 030 5.7 1013 Night Thunderstorm 10 km
2025-02-25 20:02:37 26 96 25 050 13.3 1013 Thundershowers 05 km
2025-02-25 19:02:35 28 84 25 020 17.1 1011 Lightning 10 km
2025-02-25 18:04:48 28 86 25 010 13.3 1011 Partly Cloudy (Night) 10 km
2025-02-25 17:02:39 28 85 26 020 15.2 1010 Showers 10 KM
2025-02-25 16:00:41 29 77 25 360 20.9 1010 Distant showers 15 KM
2025-02-25 15:00:17 30 70 24 010 20.9 1011 Cloudy 20 KM
2025-02-25 14:00:22 30 72 25 360 15.2 1012 Partly Cloudy (Day) 20 KM
2025-02-25 12:57:58 31 72 0.00 25 350 15.2 1012 Partly Cloudy (Day) 20KM
2025-02-25 11:59:37 31 71 0.00 25 350 17.1 1013 Partly Cloudy (Day) 20KM
2025-02-25 11:02:59 31 66 0.00 24 350 17.1 1013 Partly Cloudy (Night) 10KM
2025-02-25 10:02:26 30 70 24 030 19.0 1014 Partly Cloudy (Night) 20 KM
2025-02-25 08:58:32 29 79 25 050 11.4 1014 Partly Cloudy (Night) 20 KM
2025-02-25 08:02:07 27 89 25 070 3.8 1013 Partly Cloudy (Night) 10 KM
2025-02-25 07:01:58 25 97 24 120 1.9 1012 Partly Cloudy (Day) 10 KM
2025-02-25 05:59:29 25 95 24 160 1.9 1012 Partly Cloudy (Day) 10 KM
2025-02-25 05:13:05 25 96 24 080 1.9 1012 Partly Cloudy (Night) 10 KM
2025-02-25 03:59:31 26 94 25 230 5.7 1012 Partly Cloudy (Night) 10 KM
2025-02-25 03:00:12 26 95 25 110 1.9 1012 Partly Cloudy (Night) 10 KM
2025-02-25 01:59:52 26 92 0.0 25 210 3.8 1012 Partly Cloudy (Night) 10 KM
2025-02-25 00:57:48 27 91 0.0 25 140 3.8 1013 Partly Cloudy (Night) 10 KM
2025-02-25 00:00:45 28 85 0.0 25 040 7.6 1014 Partly Cloudy (Night) 10 KM
2025-02-24 22:00:39 29 82 0.0 25 040 7.6 1014 Partly Cloudy (Night) 10 KM